Flight Track Log - Related Links

Times and Time Zones

All times are in EDT time to prevent confusion due to time zone crossing. See the N612CT flight status page for this flight to view local times or setup timezone preferences in your user account.

Time Position Orientation Groundspeed Altitude Reporting Facility
EDT Latitude Longitude Course Direction KTS MPH feet Rate Location/Type
Fri 01:28:00 PM 26.4274 -81.8000 North  Level FlightAware Approximate
Fri 01:29:00 PM 26.4739 -81.8008 355° North  Level FlightAware Approximate
Fri 01:30:00 PM 26.5203 -81.8056 355° North  Level FlightAware Approximate
Fri 01:31:00 PM 26.5677 -81.8106 355° North  Level FlightAware Approximate
Fri 01:32:00 PM 26.6150 -81.8156 355° North  Level FlightAware Approximate
Fri 01:33:00 PM 26.6624 -81.8205 355° North  Level FlightAware Approximate
Fri 01:34:00 PM 26.7098 -81.8255 355° North  Level FlightAware Approximate
Fri 01:35:00 PM 26.7571 -81.8305 355° North  Level FlightAware Approximate
Fri 01:36:00 PM 26.8045 -81.8355 355° North  Level FlightAware Approximate
Fri 01:37:00 PM 26.8519 -81.8405 355° North  Level FlightAware Approximate
Fri 01:38:00 PM 26.8992 -81.8455 355° North  Level FlightAware Approximate
Fri 01:38:41 PM 26.7947 -81.7900 354° North 179 206 6,000  Level Miami Center
Fri 01:39:00 PM 26.9466 -81.8504 355° North  Level FlightAware Approximate
Fri 01:39:41 PM 26.8467 -81.8014 349° North 179 206 6,000  Level Miami Center
Fri 01:40:00 PM 26.9939 -81.8555 355° North  Level FlightAware Approximate
Fri 01:40:41 PM 26.8964 -81.8081 353° North 179 206 6,000  Level Miami Center
Fri 01:41:00 PM 27.0413 -81.8605 355° North  Level FlightAware Approximate
Fri 01:41:41 PM 26.9439 -81.8217 346° North 179 206 6,000  Level Miami Center
Fri 01:42:00 PM 27.0887 -81.8655 355° North  Level FlightAware Approximate
Fri 01:42:41 PM 26.9897 -81.8261 355° North 179 206 6,000  Level Miami Center
Fri 01:43:00 PM 27.1360 -81.8707 354° North  Level FlightAware Approximate
Fri 01:43:41 PM 27.0417 -81.8353 351° North 179 206 6,000  Level Miami Center
Fri 01:44:41 PM 27.0914 -81.8444 351° North 179 206 6,000  Level Miami Center
Fri 01:45:41 PM 27.1308 -81.8531 349° North 179 206 6,000  Level Miami Center
Fri 01:46:41 PM 27.1908 -81.8650 350° North 179 206 6,000  Level Miami Center
Fri 01:47:41 PM 27.2386 -81.8742 350° North 179 206 6,000  Level Miami Center
Fri 01:48:41 PM 27.2883 -81.8833 351° North 179 206 6,000  Level Miami Center
Fri 01:49:41 PM 27.3381 -81.8925 351° North 179 206 6,000  Level Miami Center
Fri 01:50:41 PM 27.3878 -81.9017 351° North 179 206 6,000  Level Miami Center
Fri 01:51:41 PM 27.4378 -81.9108 351° North 179 206 6,000  Level Miami Center
Fri 01:52:41 PM 27.4875 -81.9200 351° North 179 206 6,000  Level Miami Center
Fri 01:53:41 PM 27.5372 -81.9292 351° North 179 206 6,000  Level Miami Center
Fri 01:54:41 PM 27.5869 -81.9361 353° North 179 206 6,000  Level Miami Center
Fri 01:55:41 PM 27.6325 -81.9453 350° North 179 206 6,000  Level Miami Center
Fri 01:56:41 PM 27.6822 -81.9544 351° North 179 206 6,000  Level Miami Center
Fri 01:57:41 PM 27.7322 -81.9636 351° North 179 206 6,000  Level Miami Center
Fri 01:58:41 PM 27.7839 -81.9753 349° North 179 206 6,000  Level Miami Center
Fri 01:59:41 PM 27.8336 -81.9847 350° North 184 212 6,000  Level Miami Center
Fri 02:00:41 PM 27.8833 -81.9939 351° North 184 212 6,000  Level Miami Center
Fri 02:01:41 PM 27.9331 -82.0056 348° North 179 206 6,000  Level Miami Center
Fri 02:02:39 PM 27.9833 -82.0167 349° North 183 211 6,000  Level Tampa TRACON
Fri 02:03:44 PM 28.0333 -82.0333 344° North 182 209 6,000  Level Tampa TRACON
Fri 02:04:44 PM 28.0833 -82.0500 344° North 180 207 6,000  Level Tampa TRACON
Fri 02:05:39 PM 28.1333 -82.0667 344° North 181 208 6,000  Level Tampa TRACON
Fri 02:06:40 PM 28.1833 -82.0833 344° North 181 208 6,000  Level Tampa TRACON
Fri 02:07:31 PM 28.2167 -82.1000 336° Northwest 179 206 6,000  Level Tampa TRACON
Fri 02:08:32 PM 28.2667 -82.1167 344° North 181 208 6,000  Level Tampa TRACON
Fri 02:09:33 PM 28.3167 -82.1500 330° Northwest 179 206 6,000  Level Tampa TRACON
Fri 02:10:27 PM 28.3333 -82.1667 319° Northwest 176 203 6,000  Level Tampa TRACON
Fri 02:11:28 PM 28.3667 -82.2167 307° West 175 201 6,000  Level Tampa TRACON
Fri 02:12:29 PM 28.4000 -82.2500 319° Northwest 172 198 6,000  Level Tampa TRACON
Fri 02:13:26 PM 28.4500 -82.2833 330° Northwest 170 196 6,000  Level Tampa TRACON
Fri 02:14:20 PM 28.4667 -82.3167 300° West 171 197 6,000  Level Tampa TRACON
Fri 02:15:22 PM 28.5000 -82.3667 307° West 172 198 6,000 -55 Level Tampa TRACON
Fri 02:16:09 PM 28.5392 -82.3917 331° Northwest 172 198 5,900 -78 Descending Jacksonville Center
Fri 02:16:39 PM 28.5622 -82.3939 355° North 189 217 5,900  Level Jacksonville Center
Fri 02:17:40 PM 28.6186 -82.3911 North 185 213 5,900  Level Jacksonville Center
Fri 02:18:47 PM 28.6706 -82.3886 North 181 208 5,900  Level Jacksonville Center
Fri 02:19:48 PM 28.7228 -82.3906 358° North 182 209 5,900 -103 Level Jacksonville Center
Fri 02:20:43 PM 28.7686 -82.3881 North 185 213 5,700 -362 Descending Jacksonville Center
Fri 02:21:44 PM 28.8250 -82.3853 North 196 226 5,200 -492 Descending Jacksonville Center
Fri 02:22:45 PM 28.8772 -82.3828 North 172 198 4,700 -492 Descending Jacksonville Center
Fri 02:23:46 PM 28.9211 -82.3944 347° North 156 180 4,200 -516 Descending Jacksonville Center
Fri 02:24:53 PM 28.9692 -82.3869 North 164 189 3,600 -703 Descending Jacksonville Center
Fri 02:25:54 PM 29.0131 -82.3844 North 160 184 2,700 -1,131 Descending Jacksonville Center
Fri 02:26:55 PM 29.0525 -82.3675 21° North 139 160 1,300 -1,033 Descending Jacksonville Center
Fri 02:27:56 PM 29.0753 -82.3486 36° Northeast 109 125 600 -466 Descending Jacksonville Center
Fri 02:28:51 PM 29.0775 -82.3700 277° West 90 104 400 -94 Descending Jacksonville Center
Fri 02:30:04 PM 29.0775 -82.3722 270° West 90 104 400  Level Jacksonville Center
Fri 02:32:00 PM 29.0775 -82.3722 270° West 90 104 400  Level Jacksonville Center
Fri 02:34:08 PM 29.0775 -82.3722 270° West 90 104 400  Level Jacksonville Center
Fri 02:36:16 PM 29.0775 -82.3722 270° West 90 104 400  Level Jacksonville Center

Login

Don't have an account? Register now (free) for customized features, flight alerts, and more!